sensor_id;sensor_type;location;lat;lon;timestamp;P1;durP1;ratioP1;P2;durP2;ratioP2
3779;SDS011;1905;52.482;9.802;2022-10-23T00:00:00;3.47;;;2.70;;
3779;SDS011;1905;52.482;9.802;2022-10-23T00:02:29;4.00;;;3.03;;
3779;SDS011;1905;52.482;9.802;2022-10-23T00:04:57;3.53;;;2.73;;
3779;SDS011;1905;52.482;9.802;2022-10-23T00:07:24;4.17;;;3.10;;
3779;SDS011;1905;52.482;9.802;2022-10-23T00:09:54;2.90;;;2.50;;
3779;SDS011;1905;52.482;9.802;2022-10-23T00:12:21;4.73;;;2.83;;
3779;SDS011;1905;52.482;9.802;2022-10-23T00:14:49;3.10;;;2.40;;
3779;SDS011;1905;52.482;9.802;2022-10-23T00:17:16;5.83;;;2.80;;
3779;SDS011;1905;52.482;9.802;2022-10-23T00:19:44;4.17;;;2.90;;
3779;SDS011;1905;52.482;9.802;2022-10-23T00:22:11;3.67;;;2.70;;
3779;SDS011;1905;52.482;9.802;2022-10-23T00:24:39;3.30;;;3.00;;
3779;SDS011;1905;52.482;9.802;2022-10-23T00:27:08;2.60;;;2.40;;
3779;SDS011;1905;52.482;9.802;2022-10-23T00:29:36;3.70;;;2.53;;
3779;SDS011;1905;52.482;9.802;2022-10-23T00:32:05;5.13;;;3.00;;
3779;SDS011;1905;52.482;9.802;2022-10-23T00:34:32;3.20;;;2.90;;
3779;SDS011;1905;52.482;9.802;2022-10-23T00:37:01;3.87;;;3.03;;
3779;SDS011;1905;52.482;9.802;2022-10-23T00:39:29;4.07;;;2.70;;
3779;SDS011;1905;52.482;9.802;2022-10-23T00:41:57;3.63;;;2.97;;
3779;SDS011;1905;52.482;9.802;2022-10-23T00:47:31;2.93;;;2.30;;
3779;SDS011;1905;52.482;9.802;2022-10-23T00:49:59;3.60;;;3.10;;
3779;SDS011;1905;52.482;9.802;2022-10-23T00:52:27;2.97;;;2.77;;
3779;SDS011;1905;52.482;9.802;2022-10-23T00:54:56;4.47;;;3.17;;
3779;SDS011;1905;52.482;9.802;2022-10-23T00:57:24;3.73;;;2.73;;
3779;SDS011;1905;52.482;9.802;2022-10-23T00:59:57;3.33;;;2.87;;
3779;SDS011;1905;52.482;9.802;2022-10-23T01:02:25;3.13;;;2.73;;
3779;SDS011;1905;52.482;9.802;2022-10-23T01:04:54;4.70;;;3.13;;
3779;SDS011;1905;52.482;9.802;2022-10-23T01:07:23;4.53;;;2.80;;
3779;SDS011;1905;52.482;9.802;2022-10-23T01:09:59;5.83;;;3.27;;
3779;SDS011;1905;52.482;9.802;2022-10-23T01:12:33;5.30;;;3.40;;
3779;SDS011;1905;52.482;9.802;2022-10-23T01:15:08;5.00;;;3.20;;
3779;SDS011;1905;52.482;9.802;2022-10-23T01:17:44;4.43;;;3.47;;
3779;SDS011;1905;52.482;9.802;2022-10-23T01:20:26;3.40;;;2.80;;
3779;SDS011;1905;52.482;9.802;2022-10-23T01:23:07;2.50;;;2.30;;
3779;SDS011;1905;52.482;9.802;2022-10-23T01:25:57;4.40;;;2.77;;
3779;SDS011;1905;52.482;9.802;2022-10-23T01:28:35;4.13;;;2.90;;
3779;SDS011;1905;52.482;9.802;2022-10-23T01:31:10;4.17;;;2.73;;
3779;SDS011;1905;52.482;9.802;2022-10-23T01:33:43;6.60;;;3.37;;
3779;SDS011;1905;52.482;9.802;2022-10-23T01:36:22;4.90;;;2.90;;
3779;SDS011;1905;52.482;9.802;2022-10-23T01:38:57;4.70;;;3.40;;
3779;SDS011;1905;52.482;9.802;2022-10-23T01:41:30;6.67;;;2.83;;
3779;SDS011;1905;52.482;9.802;2022-10-23T01:44:05;6.83;;;3.90;;
3779;SDS011;1905;52.482;9.802;2022-10-23T01:46:38;2.97;;;2.73;;
3779;SDS011;1905;52.482;9.802;2022-10-23T01:49:09;5.83;;;3.40;;
3779;SDS011;1905;52.482;9.802;2022-10-23T01:51:40;5.20;;;2.80;;
3779;SDS011;1905;52.482;9.802;2022-10-23T01:54:12;3.87;;;3.30;;
3779;SDS011;1905;52.482;9.802;2022-10-23T01:56:43;4.87;;;3.37;;
3779;SDS011;1905;52.482;9.802;2022-10-23T01:59:15;5.03;;;4.23;;
3779;SDS011;1905;52.482;9.802;2022-10-23T02:01:48;4.00;;;2.47;;
3779;SDS011;1905;52.482;9.802;2022-10-23T02:04:20;4.10;;;3.23;;
3779;SDS011;1905;52.482;9.802;2022-10-23T02:06:51;6.80;;;2.93;;
3779;SDS011;1905;52.482;9.802;2022-10-23T02:09:19;3.20;;;2.53;;
3779;SDS011;1905;52.482;9.802;2022-10-23T02:11:50;2.80;;;2.33;;
3779;SDS011;1905;52.482;9.802;2022-10-23T02:14:25;5.30;;;3.90;;
3779;SDS011;1905;52.482;9.802;2022-10-23T02:17:04;4.50;;;3.40;;
3779;SDS011;1905;52.482;9.802;2022-10-23T02:19:43;4.20;;;2.90;;
3779;SDS011;1905;52.482;9.802;2022-10-23T02:22:18;5.73;;;3.30;;
3779;SDS011;1905;52.482;9.802;2022-10-23T02:24:50;3.40;;;2.50;;
3779;SDS011;1905;52.482;9.802;2022-10-23T02:27:23;3.43;;;3.10;;
3779;SDS011;1905;52.482;9.802;2022-10-23T02:29:59;3.83;;;2.80;;
3779;SDS011;1905;52.482;9.802;2022-10-23T02:32:32;3.80;;;2.50;;
3779;SDS011;1905;52.482;9.802;2022-10-23T02:35:01;3.60;;;3.27;;
3779;SDS011;1905;52.482;9.802;2022-10-23T02:37:29;5.87;;;2.80;;
3779;SDS011;1905;52.482;9.802;2022-10-23T02:39:59;4.80;;;2.93;;
3779;SDS011;1905;52.482;9.802;2022-10-23T02:42:37;3.93;;;3.33;;
3779;SDS011;1905;52.482;9.802;2022-10-23T02:45:14;3.23;;;2.93;;
3779;SDS011;1905;52.482;9.802;2022-10-23T02:47:47;7.37;;;2.97;;
3779;SDS011;1905;52.482;9.802;2022-10-23T02:50:25;7.23;;;3.23;;
3779;SDS011;1905;52.482;9.802;2022-10-23T02:53:02;4.27;;;3.57;;
3779;SDS011;1905;52.482;9.802;2022-10-23T02:55:41;5.90;;;3.43;;
3779;SDS011;1905;52.482;9.802;2022-10-23T02:58:16;9.23;;;4.90;;
3779;SDS011;1905;52.482;9.802;2022-10-23T03:00:52;5.33;;;3.00;;
3779;SDS011;1905;52.482;9.802;2022-10-23T03:03:24;5.13;;;3.40;;
3779;SDS011;1905;52.482;9.802;2022-10-23T03:05:56;4.17;;;3.50;;
3779;SDS011;1905;52.482;9.802;2022-10-23T03:08:24;2.60;;;2.40;;
3779;SDS011;1905;52.482;9.802;2022-10-23T03:10:51;4.03;;;3.40;;
3779;SDS011;1905;52.482;9.802;2022-10-23T03:13:21;6.97;;;3.47;;
3779;SDS011;1905;52.482;9.802;2022-10-23T03:15:52;8.00;;;5.30;;
3779;SDS011;1905;52.482;9.802;2022-10-23T03:18:19;6.03;;;2.90;;
3779;SDS011;1905;52.482;9.802;2022-10-23T03:20:49;3.67;;;3.37;;
3779;SDS011;1905;52.482;9.802;2022-10-23T03:23:20;5.23;;;3.47;;
3779;SDS011;1905;52.482;9.802;2022-10-23T03:25:47;4.80;;;3.43;;
3779;SDS011;1905;52.482;9.802;2022-10-23T03:28:29;6.50;;;3.67;;
3779;SDS011;1905;52.482;9.802;2022-10-23T03:30:59;3.50;;;2.70;;
3779;SDS011;1905;52.482;9.802;2022-10-23T03:33:27;4.30;;;3.20;;
3779;SDS011;1905;52.482;9.802;2022-10-23T03:36:03;6.97;;;3.70;;
3779;SDS011;1905;52.482;9.802;2022-10-23T03:38:33;4.50;;;3.40;;
3779;SDS011;1905;52.482;9.802;2022-10-23T03:41:02;3.67;;;3.00;;
3779;SDS011;1905;52.482;9.802;2022-10-23T03:43:30;3.33;;;3.00;;
3779;SDS011;1905;52.482;9.802;2022-10-23T03:45:59;4.23;;;3.70;;
3779;SDS011;1905;52.482;9.802;2022-10-23T03:48:27;5.57;;;3.33;;
3779;SDS011;1905;52.482;9.802;2022-10-23T03:50:57;4.27;;;2.80;;
3779;SDS011;1905;52.482;9.802;2022-10-23T03:53:25;3.47;;;2.90;;
3779;SDS011;1905;52.482;9.802;2022-10-23T03:55:52;3.70;;;3.20;;
3779;SDS011;1905;52.482;9.802;2022-10-23T03:58:20;6.53;;;3.70;;
3779;SDS011;1905;52.482;9.802;2022-10-23T04:00:48;5.03;;;3.73;;
3779;SDS011;1905;52.482;9.802;2022-10-23T04:03:18;3.30;;;3.00;;
3779;SDS011;1905;52.482;9.802;2022-10-23T04:05:45;5.03;;;3.77;;
3779;SDS011;1905;52.482;9.802;2022-10-23T04:08:15;5.07;;;3.20;;
3779;SDS011;1905;52.482;9.802;2022-10-23T04:10:48;5.30;;;3.13;;
3779;SDS011;1905;52.482;9.802;2022-10-23T04:13:19;3.37;;;2.87;;
3779;SDS011;1905;52.482;9.802;2022-10-23T04:15:47;3.53;;;2.30;;
3779;SDS011;1905;52.482;9.802;2022-10-23T04:18:15;4.17;;;3.87;;
3779;SDS011;1905;52.482;9.802;2022-10-23T04:20:47;5.10;;;2.97;;
3779;SDS011;1905;52.482;9.802;2022-10-23T04:23:15;3.93;;;3.13;;
3779;SDS011;1905;52.482;9.802;2022-10-23T04:25:45;3.47;;;3.20;;
3779;SDS011;1905;52.482;9.802;2022-10-23T04:28:22;3.70;;;3.40;;
3779;SDS011;1905;52.482;9.802;2022-10-23T04:30:49;5.13;;;3.20;;
3779;SDS011;1905;52.482;9.802;2022-10-23T04:33:17;3.03;;;2.60;;
3779;SDS011;1905;52.482;9.802;2022-10-23T04:35:49;2.90;;;2.60;;
3779;SDS011;1905;52.482;9.802;2022-10-23T04:38:17;2.63;;;2.43;;
3779;SDS011;1905;52.482;9.802;2022-10-23T04:40:45;5.77;;;3.03;;
3779;SDS011;1905;52.482;9.802;2022-10-23T04:43:18;8.30;;;3.37;;
3779;SDS011;1905;52.482;9.802;2022-10-23T04:45:47;5.40;;;3.30;;
3779;SDS011;1905;52.482;9.802;2022-10-23T04:48:15;4.87;;;3.13;;
3779;SDS011;1905;52.482;9.802;2022-10-23T04:51:10;3.23;;;2.60;;
3779;SDS011;1905;52.482;9.802;2022-10-23T04:53:57;6.20;;;3.50;;
3779;SDS011;1905;52.482;9.802;2022-10-23T04:56:45;3.17;;;2.87;;
3779;SDS011;1905;52.482;9.802;2022-10-23T04:59:16;5.07;;;2.90;;
3779;SDS011;1905;52.482;9.802;2022-10-23T05:01:45;3.13;;;2.80;;
3779;SDS011;1905;52.482;9.802;2022-10-23T05:04:12;4.53;;;2.70;;
3779;SDS011;1905;52.482;9.802;2022-10-23T05:07:00;3.53;;;2.50;;
3779;SDS011;1905;52.482;9.802;2022-10-23T05:09:36;3.77;;;2.40;;
3779;SDS011;1905;52.482;9.802;2022-10-23T05:12:15;4.30;;;2.80;;
3779;SDS011;1905;52.482;9.802;2022-10-23T05:14:43;4.53;;;3.30;;
3779;SDS011;1905;52.482;9.802;2022-10-23T05:17:11;3.47;;;2.20;;
3779;SDS011;1905;52.482;9.802;2022-10-23T05:19:44;6.80;;;3.63;;
3779;SDS011;1905;52.482;9.802;2022-10-23T05:22:17;3.67;;;2.50;;
3779;SDS011;1905;52.482;9.802;2022-10-23T05:24:50;6.37;;;3.40;;
3779;SDS011;1905;52.482;9.802;2022-10-23T05:27:22;2.97;;;2.53;;
3779;SDS011;1905;52.482;9.802;2022-10-23T05:29:52;11.87;;;3.50;;
3779;SDS011;1905;52.482;9.802;2022-10-23T05:32:23;7.87;;;3.70;;
3779;SDS011;1905;52.482;9.802;2022-10-23T05:34:53;3.07;;;2.60;;
3779;SDS011;1905;52.482;9.802;2022-10-23T05:37:26;4.13;;;3.33;;
3779;SDS011;1905;52.482;9.802;2022-10-23T05:40:05;4.57;;;3.17;;
3779;SDS011;1905;52.482;9.802;2022-10-23T05:42:36;4.00;;;3.57;;
3779;SDS011;1905;52.482;9.802;2022-10-23T05:45:07;3.80;;;3.47;;
3779;SDS011;1905;52.482;9.802;2022-10-23T05:47:54;13.03;;;4.03;;
3779;SDS011;1905;52.482;9.802;2022-10-23T05:51:18;6.57;;;3.10;;
3779;SDS011;1905;52.482;9.802;2022-10-23T05:53:58;5.40;;;2.70;;
3779;SDS011;1905;52.482;9.802;2022-10-23T05:56:36;3.20;;;2.73;;
3779;SDS011;1905;52.482;9.802;2022-10-23T05:59:27;2.90;;;2.50;;
3779;SDS011;1905;52.482;9.802;2022-10-23T06:02:17;3.30;;;3.00;;
3779;SDS011;1905;52.482;9.802;2022-10-23T06:04:54;2.67;;;2.47;;
3779;SDS011;1905;52.482;9.802;2022-10-23T06:07:40;4.47;;;2.63;;
3779;SDS011;1905;52.482;9.802;2022-10-23T06:10:11;4.07;;;3.20;;
3779;SDS011;1905;52.482;9.802;2022-10-23T06:12:43;4.10;;;3.23;;
3779;SDS011;1905;52.482;9.802;2022-10-23T06:15:14;12.37;;;3.63;;
3779;SDS011;1905;52.482;9.802;2022-10-23T06:17:58;3.63;;;3.33;;
3779;SDS011;1905;52.482;9.802;2022-10-23T06:20:29;3.10;;;2.50;;
3779;SDS011;1905;52.482;9.802;2022-10-23T06:23:16;5.50;;;3.10;;
3779;SDS011;1905;52.482;9.802;2022-10-23T06:26:06;2.50;;;2.30;;
3779;SDS011;1905;52.482;9.802;2022-10-23T06:28:54;4.00;;;2.93;;
3779;SDS011;1905;52.482;9.802;2022-10-23T06:31:22;4.50;;;2.53;;
3779;SDS011;1905;52.482;9.802;2022-10-23T06:33:53;8.00;;;3.03;;
3779;SDS011;1905;52.482;9.802;2022-10-23T06:36:21;7.10;;;3.53;;
3779;SDS011;1905;52.482;9.802;2022-10-23T06:38:53;4.30;;;3.20;;
3779;SDS011;1905;52.482;9.802;2022-10-23T06:41:33;3.17;;;2.80;;
3779;SDS011;1905;52.482;9.802;2022-10-23T06:44:01;7.43;;;3.27;;
3779;SDS011;1905;52.482;9.802;2022-10-23T06:46:47;6.30;;;3.20;;
3779;SDS011;1905;52.482;9.802;2022-10-23T06:49:33;4.53;;;3.07;;
3779;SDS011;1905;52.482;9.802;2022-10-23T06:52:02;5.63;;;3.77;;
3779;SDS011;1905;52.482;9.802;2022-10-23T06:54:30;6.83;;;3.33;;
3779;SDS011;1905;52.482;9.802;2022-10-23T06:57:13;4.17;;;3.33;;
3779;SDS011;1905;52.482;9.802;2022-10-23T06:59:44;5.40;;;3.80;;
3779;SDS011;1905;52.482;9.802;2022-10-23T07:02:12;5.67;;;3.40;;
3779;SDS011;1905;52.482;9.802;2022-10-23T07:04:40;5.53;;;3.70;;
3779;SDS011;1905;52.482;9.802;2022-10-23T07:07:15;5.80;;;3.47;;
3779;SDS011;1905;52.482;9.802;2022-10-23T07:09:46;7.70;;;4.13;;
3779;SDS011;1905;52.482;9.802;2022-10-23T07:12:15;6.97;;;3.30;;
3779;SDS011;1905;52.482;9.802;2022-10-23T07:14:49;4.80;;;3.40;;
3779;SDS011;1905;52.482;9.802;2022-10-23T07:17:16;3.77;;;3.33;;
3779;SDS011;1905;52.482;9.802;2022-10-23T07:19:44;5.77;;;3.30;;
3779;SDS011;1905;52.482;9.802;2022-10-23T07:22:14;5.70;;;3.83;;
3779;SDS011;1905;52.482;9.802;2022-10-23T07:24:53;6.80;;;3.90;;
3779;SDS011;1905;52.482;9.802;2022-10-23T07:27:27;9.30;;;3.77;;
3779;SDS011;1905;52.482;9.802;2022-10-23T07:29:59;3.23;;;2.90;;
3779;SDS011;1905;52.482;9.802;2022-10-23T07:32:31;5.67;;;3.50;;
3779;SDS011;1905;52.482;9.802;2022-10-23T07:35:18;4.20;;;3.60;;
3779;SDS011;1905;52.482;9.802;2022-10-23T07:38:02;12.00;;;4.30;;
3779;SDS011;1905;52.482;9.802;2022-10-23T07:40:35;5.30;;;3.83;;
3779;SDS011;1905;52.482;9.802;2022-10-23T07:43:06;3.87;;;3.57;;
3779;SDS011;1905;52.482;9.802;2022-10-23T07:45:33;5.20;;;3.90;;
3779;SDS011;1905;52.482;9.802;2022-10-23T07:48:10;4.43;;;3.73;;
3779;SDS011;1905;52.482;9.802;2022-10-23T07:50:56;10.17;;;3.90;;
3779;SDS011;1905;52.482;9.802;2022-10-23T07:53:26;9.90;;;4.67;;
3779;SDS011;1905;52.482;9.802;2022-10-23T07:55:59;5.60;;;4.23;;
3779;SDS011;1905;52.482;9.802;2022-10-23T07:58:50;6.30;;;5.17;;
3779;SDS011;1905;52.482;9.802;2022-10-23T08:01:22;5.90;;;3.90;;
3779;SDS011;1905;52.482;9.802;2022-10-23T08:03:56;11.93;;;4.10;;
3779;SDS011;1905;52.482;9.802;2022-10-23T08:06:24;6.07;;;4.00;;
3779;SDS011;1905;52.482;9.802;2022-10-23T08:08:52;8.70;;;4.30;;
3779;SDS011;1905;52.482;9.802;2022-10-23T08:11:21;6.87;;;4.47;;
3779;SDS011;1905;52.482;9.802;2022-10-23T08:13:55;6.10;;;4.00;;
3779;SDS011;1905;52.482;9.802;2022-10-23T08:16:26;6.47;;;4.20;;
3779;SDS011;1905;52.482;9.802;2022-10-23T08:19:13;11.33;;;4.27;;
3779;SDS011;1905;52.482;9.802;2022-10-23T08:21:42;6.67;;;4.30;;
3779;SDS011;1905;52.482;9.802;2022-10-23T08:24:11;6.20;;;3.57;;
3779;SDS011;1905;52.482;9.802;2022-10-23T08:26:42;5.47;;;3.97;;
3779;SDS011;1905;52.482;9.802;2022-10-23T08:29:14;10.20;;;5.27;;
3779;SDS011;1905;52.482;9.802;2022-10-23T08:31:42;6.47;;;3.40;;
3779;SDS011;1905;52.482;9.802;2022-10-23T08:34:20;8.17;;;3.47;;
3779;SDS011;1905;52.482;9.802;2022-10-23T08:36:50;4.23;;;3.80;;
3779;SDS011;1905;52.482;9.802;2022-10-23T08:39:18;4.60;;;3.60;;
3779;SDS011;1905;52.482;9.802;2022-10-23T08:41:59;5.27;;;3.30;;
3779;SDS011;1905;52.482;9.802;2022-10-23T08:44:30;10.73;;;3.50;;
3779;SDS011;1905;52.482;9.802;2022-10-23T08:47:00;13.00;;;4.90;;
3779;SDS011;1905;52.482;9.802;2022-10-23T08:49:44;8.83;;;3.67;;
3779;SDS011;1905;52.482;9.802;2022-10-23T08:52:19;3.87;;;3.40;;
3779;SDS011;1905;52.482;9.802;2022-10-23T08:54:52;6.60;;;3.33;;
3779;SDS011;1905;52.482;9.802;2022-10-23T08:57:27;9.13;;;3.40;;
3779;SDS011;1905;52.482;9.802;2022-10-23T09:00:11;3.43;;;2.77;;
3779;SDS011;1905;52.482;9.802;2022-10-23T09:02:41;4.30;;;3.57;;
3779;SDS011;1905;52.482;9.802;2022-10-23T09:05:13;9.73;;;3.63;;
3779;SDS011;1905;52.482;9.802;2022-10-23T09:10:48;6.53;;;3.17;;
3779;SDS011;1905;52.482;9.802;2022-10-23T09:13:30;3.73;;;3.33;;
3779;SDS011;1905;52.482;9.802;2022-10-23T09:16:12;4.30;;;3.47;;
3779;SDS011;1905;52.482;9.802;2022-10-23T09:18:45;3.20;;;2.90;;
3779;SDS011;1905;52.482;9.802;2022-10-23T09:21:15;4.33;;;3.03;;
3779;SDS011;1905;52.482;9.802;2022-10-23T09:23:45;5.53;;;2.63;;
3779;SDS011;1905;52.482;9.802;2022-10-23T09:26:14;6.57;;;3.20;;
3779;SDS011;1905;52.482;9.802;2022-10-23T09:28:45;5.67;;;2.90;;
3779;SDS011;1905;52.482;9.802;2022-10-23T09:31:18;5.73;;;3.37;;
3779;SDS011;1905;52.482;9.802;2022-10-23T09:33:53;3.80;;;3.03;;
3779;SDS011;1905;52.482;9.802;2022-10-23T09:36:21;3.20;;;2.70;;
3779;SDS011;1905;52.482;9.802;2022-10-23T09:38:52;2.67;;;2.47;;
3779;SDS011;1905;52.482;9.802;2022-10-23T09:41:21;4.33;;;2.93;;
3779;SDS011;1905;52.482;9.802;2022-10-23T09:44:10;4.13;;;2.60;;
3779;SDS011;1905;52.482;9.802;2022-10-23T09:46:46;9.27;;;2.67;;
3779;SDS011;1905;52.482;9.802;2022-10-23T09:49:20;3.17;;;2.57;;
3779;SDS011;1905;52.482;9.802;2022-10-23T09:51:59;3.77;;;2.77;;
3779;SDS011;1905;52.482;9.802;2022-10-23T09:54:29;2.60;;;2.33;;
3779;SDS011;1905;52.482;9.802;2022-10-23T09:57:01;4.60;;;3.10;;
3779;SDS011;1905;52.482;9.802;2022-10-23T09:59:32;2.40;;;2.20;;
3779;SDS011;1905;52.482;9.802;2022-10-23T10:02:01;6.43;;;2.90;;
3779;SDS011;1905;52.482;9.802;2022-10-23T10:05:20;3.40;;;2.47;;
3779;SDS011;1905;52.482;9.802;2022-10-23T10:07:55;3.90;;;1.90;;
3779;SDS011;1905;52.482;9.802;2022-10-23T10:10:26;2.83;;;2.23;;
3779;SDS011;1905;52.482;9.802;2022-10-23T10:13:02;2.63;;;2.20;;
3779;SDS011;1905;52.482;9.802;2022-10-23T10:15:42;3.23;;;2.70;;
3779;SDS011;1905;52.482;9.802;2022-10-23T10:18:19;2.70;;;2.07;;
3779;SDS011;1905;52.482;9.802;2022-10-23T10:20:59;6.23;;;2.70;;
3779;SDS011;1905;52.482;9.802;2022-10-23T10:23:40;5.30;;;2.20;;
3779;SDS011;1905;52.482;9.802;2022-10-23T10:26:16;4.60;;;2.30;;
3779;SDS011;1905;52.482;9.802;2022-10-23T10:31:47;4.73;;;2.37;;
3779;SDS011;1905;52.482;9.802;2022-10-23T10:34:29;2.13;;;1.73;;
3779;SDS011;1905;52.482;9.802;2022-10-23T10:37:04;3.20;;;1.87;;
3779;SDS011;1905;52.482;9.802;2022-10-23T10:39:41;3.93;;;2.43;;
3779;SDS011;1905;52.482;9.802;2022-10-23T10:42:28;2.30;;;2.10;;
3779;SDS011;1905;52.482;9.802;2022-10-23T10:45:10;2.80;;;2.13;;
3779;SDS011;1905;52.482;9.802;2022-10-23T10:47:47;3.20;;;2.10;;
3779;SDS011;1905;52.482;9.802;2022-10-23T10:50:51;6.40;;;2.20;;
3779;SDS011;1905;52.482;9.802;2022-10-23T10:53:39;7.03;;;2.27;;
3779;SDS011;1905;52.482;9.802;2022-10-23T10:56:16;5.33;;;1.90;;
3779;SDS011;1905;52.482;9.802;2022-10-23T10:58:47;2.80;;;1.97;;
3779;SDS011;1905;52.482;9.802;2022-10-23T11:01:19;2.53;;;2.03;;
3779;SDS011;1905;52.482;9.802;2022-10-23T11:03:53;2.60;;;1.83;;
3779;SDS011;1905;52.482;9.802;2022-10-23T11:06:28;5.40;;;2.93;;
3779;SDS011;1905;52.482;9.802;2022-10-23T11:09:10;4.40;;;1.77;;
3779;SDS011;1905;52.482;9.802;2022-10-23T11:11:46;5.53;;;1.60;;
3779;SDS011;1905;52.482;9.802;2022-10-23T11:14:14;2.30;;;1.77;;
3779;SDS011;1905;52.482;9.802;2022-10-23T11:16:44;3.70;;;1.90;;
3779;SDS011;1905;52.482;9.802;2022-10-23T11:19:17;2.33;;;1.57;;
3779;SDS011;1905;52.482;9.802;2022-10-23T11:21:58;3.73;;;1.60;;
3779;SDS011;1905;52.482;9.802;2022-10-23T11:30:48;2.20;;;2.00;;
3779;SDS011;1905;52.482;9.802;2022-10-23T11:33:47;2.77;;;1.93;;
3779;SDS011;1905;52.482;9.802;2022-10-23T11:36:42;3.10;;;1.70;;
3779;SDS011;1905;52.482;9.802;2022-10-23T11:39:16;5.10;;;3.70;;
3779;SDS011;1905;52.482;9.802;2022-10-23T11:41:50;3.77;;;2.00;;
3779;SDS011;1905;52.482;9.802;2022-10-23T11:44:27;3.30;;;1.60;;
3779;SDS011;1905;52.482;9.802;2022-10-23T11:53:00;2.47;;;2.03;;
3779;SDS011;1905;52.482;9.802;2022-10-23T11:55:59;1.80;;;1.70;;
3779;SDS011;1905;52.482;9.802;2022-10-23T11:58:39;2.00;;;1.80;;
3779;SDS011;1905;52.482;9.802;2022-10-23T12:01:21;3.33;;;1.57;;
3779;SDS011;1905;52.482;9.802;2022-10-23T12:03:56;3.13;;;1.93;;
3779;SDS011;1905;52.482;9.802;2022-10-23T12:06:27;4.40;;;2.00;;
3779;SDS011;1905;52.482;9.802;2022-10-23T12:08:59;1.70;;;1.60;;
3779;SDS011;1905;52.482;9.802;2022-10-23T12:11:40;3.93;;;2.23;;
3779;SDS011;1905;52.482;9.802;2022-10-23T12:16:57;2.90;;;1.50;;
3779;SDS011;1905;52.482;9.802;2022-10-23T12:19:26;2.53;;;1.70;;
3779;SDS011;1905;52.482;9.802;2022-10-23T12:21:56;3.43;;;1.70;;
3779;SDS011;1905;52.482;9.802;2022-10-23T12:27:26;2.60;;;1.57;;
3779;SDS011;1905;52.482;9.802;2022-10-23T12:30:00;1.90;;;1.80;;
3779;SDS011;1905;52.482;9.802;2022-10-23T12:32:55;2.50;;;1.97;;
3779;SDS011;1905;52.482;9.802;2022-10-23T12:35:37;3.13;;;2.00;;
3779;SDS011;1905;52.482;9.802;2022-10-23T12:38:24;3.00;;;1.73;;
3779;SDS011;1905;52.482;9.802;2022-10-23T12:41:02;1.90;;;1.70;;
3779;SDS011;1905;52.482;9.802;2022-10-23T12:43:37;3.00;;;1.70;;
3779;SDS011;1905;52.482;9.802;2022-10-23T12:46:15;3.53;;;2.00;;
3779;SDS011;1905;52.482;9.802;2022-10-23T12:48:52;1.93;;;1.70;;
3779;SDS011;1905;52.482;9.802;2022-10-23T12:51:22;2.90;;;1.30;;
3779;SDS011;1905;52.482;9.802;2022-10-23T12:53:51;3.07;;;1.70;;
3779;SDS011;1905;52.482;9.802;2022-10-23T12:56:19;1.47;;;1.37;;
3779;SDS011;1905;52.482;9.802;2022-10-23T12:58:50;2.90;;;1.60;;
3779;SDS011;1905;52.482;9.802;2022-10-23T13:01:23;2.70;;;1.60;;
3779;SDS011;1905;52.482;9.802;2022-10-23T13:03:55;2.30;;;1.50;;
3779;SDS011;1905;52.482;9.802;2022-10-23T13:06:25;4.70;;;2.07;;
3779;SDS011;1905;52.482;9.802;2022-10-23T13:08:54;2.10;;;1.80;;
3779;SDS011;1905;52.482;9.802;2022-10-23T13:11:33;3.70;;;1.27;;
3779;SDS011;1905;52.482;9.802;2022-10-23T13:14:11;2.00;;;1.80;;
3779;SDS011;1905;52.482;9.802;2022-10-23T13:16:39;3.30;;;2.00;;
3779;SDS011;1905;52.482;9.802;2022-10-23T13:19:19;2.13;;;1.93;;
3779;SDS011;1905;52.482;9.802;2022-10-23T13:21:49;2.60;;;1.73;;
3779;SDS011;1905;52.482;9.802;2022-10-23T13:24:18;3.73;;;1.90;;
3779;SDS011;1905;52.482;9.802;2022-10-23T13:26:47;2.00;;;1.57;;
3779;SDS011;1905;52.482;9.802;2022-10-23T13:29:18;3.40;;;1.57;;
3779;SDS011;1905;52.482;9.802;2022-10-23T13:31:48;1.60;;;1.20;;
3779;SDS011;1905;52.482;9.802;2022-10-23T13:34:17;6.73;;;2.20;;
3779;SDS011;1905;52.482;9.802;2022-10-23T13:36:52;2.10;;;1.70;;
3779;SDS011;1905;52.482;9.802;2022-10-23T13:39:26;2.90;;;2.10;;
3779;SDS011;1905;52.482;9.802;2022-10-23T13:41:56;1.90;;;1.20;;
3779;SDS011;1905;52.482;9.802;2022-10-23T13:44:33;1.83;;;1.60;;
3779;SDS011;1905;52.482;9.802;2022-10-23T13:47:02;2.33;;;1.50;;
3779;SDS011;1905;52.482;9.802;2022-10-23T13:49:30;3.60;;;1.50;;
3779;SDS011;1905;52.482;9.802;2022-10-23T13:51:58;7.83;;;2.40;;
3779;SDS011;1905;52.482;9.802;2022-10-23T13:54:26;2.40;;;1.63;;
3779;SDS011;1905;52.482;9.802;2022-10-23T13:56:54;2.40;;;1.80;;
3779;SDS011;1905;52.482;9.802;2022-10-23T13:59:23;2.30;;;1.53;;
3779;SDS011;1905;52.482;9.802;2022-10-23T14:01:52;6.80;;;1.97;;
3779;SDS011;1905;52.482;9.802;2022-10-23T14:04:20;3.93;;;1.70;;
3779;SDS011;1905;52.482;9.802;2022-10-23T14:06:49;2.60;;;1.57;;
3779;SDS011;1905;52.482;9.802;2022-10-23T14:09:23;1.70;;;1.57;;
3779;SDS011;1905;52.482;9.802;2022-10-23T14:11:51;2.53;;;1.33;;
3779;SDS011;1905;52.482;9.802;2022-10-23T14:14:18;6.07;;;1.73;;
3779;SDS011;1905;52.482;9.802;2022-10-23T14:16:46;5.93;;;1.70;;
3779;SDS011;1905;52.482;9.802;2022-10-23T14:19:15;2.07;;;1.63;;
3779;SDS011;1905;52.482;9.802;2022-10-23T14:21:43;2.73;;;1.50;;
3779;SDS011;1905;52.482;9.802;2022-10-23T14:24:10;2.33;;;1.57;;
3779;SDS011;1905;52.482;9.802;2022-10-23T14:26:39;2.17;;;1.60;;
3779;SDS011;1905;52.482;9.802;2022-10-23T14:29:08;1.67;;;1.57;;
3779;SDS011;1905;52.482;9.802;2022-10-23T14:31:46;4.57;;;1.90;;
3779;SDS011;1905;52.482;9.802;2022-10-23T14:34:15;1.83;;;1.60;;
3779;SDS011;1905;52.482;9.802;2022-10-23T14:36:43;2.07;;;1.60;;
3779;SDS011;1905;52.482;9.802;2022-10-23T14:39:21;2.07;;;1.60;;
3779;SDS011;1905;52.482;9.802;2022-10-23T14:41:49;1.70;;;1.60;;
3779;SDS011;1905;52.482;9.802;2022-10-23T14:44:17;5.80;;;1.83;;
3779;SDS011;1905;52.482;9.802;2022-10-23T14:46:44;2.53;;;1.60;;
3779;SDS011;1905;52.482;9.802;2022-10-23T14:49:12;1.33;;;1.23;;
3779;SDS011;1905;52.482;9.802;2022-10-23T14:51:41;2.77;;;1.60;;
3779;SDS011;1905;52.482;9.802;2022-10-23T14:54:09;3.43;;;1.97;;
3779;SDS011;1905;52.482;9.802;2022-10-23T14:56:37;3.20;;;1.67;;
3779;SDS011;1905;52.482;9.802;2022-10-23T14:59:06;2.60;;;1.83;;
3779;SDS011;1905;52.482;9.802;2022-10-23T15:01:37;1.50;;;1.40;;
3779;SDS011;1905;52.482;9.802;2022-10-23T15:04:21;2.00;;;1.70;;
3779;SDS011;1905;52.482;9.802;2022-10-23T15:06:50;4.40;;;1.67;;
3779;SDS011;1905;52.482;9.802;2022-10-23T15:09:18;1.20;;;1.17;;
3779;SDS011;1905;52.482;9.802;2022-10-23T15:11:46;4.30;;;1.80;;
3779;SDS011;1905;52.482;9.802;2022-10-23T15:14:14;6.20;;;2.07;;
3779;SDS011;1905;52.482;9.802;2022-10-23T15:16:42;3.73;;;2.10;;
3779;SDS011;1905;52.482;9.802;2022-10-23T15:19:09;3.40;;;2.33;;
3779;SDS011;1905;52.482;9.802;2022-10-23T15:21:44;2.87;;;2.67;;
3779;SDS011;1905;52.482;9.802;2022-10-23T15:24:13;7.07;;;3.93;;
3779;SDS011;1905;52.482;9.802;2022-10-23T15:26:42;5.90;;;2.60;;
3779;SDS011;1905;52.482;9.802;2022-10-23T15:29:10;4.50;;;2.50;;
3779;SDS011;1905;52.482;9.802;2022-10-23T15:31:43;2.27;;;2.07;;
3779;SDS011;1905;52.482;9.802;2022-10-23T15:34:14;1.70;;;1.60;;
3779;SDS011;1905;52.482;9.802;2022-10-23T15:36:44;3.10;;;1.47;;
3779;SDS011;1905;52.482;9.802;2022-10-23T15:39:15;1.87;;;1.77;;
3779;SDS011;1905;52.482;9.802;2022-10-23T15:41:44;5.13;;;1.60;;
3779;SDS011;1905;52.482;9.802;2022-10-23T15:44:13;2.73;;;1.90;;
3779;SDS011;1905;52.482;9.802;2022-10-23T15:46:42;3.07;;;1.60;;
3779;SDS011;1905;52.482;9.802;2022-10-23T15:49:11;2.80;;;1.67;;
3779;SDS011;1905;52.482;9.802;2022-10-23T15:51:39;2.60;;;1.33;;
3779;SDS011;1905;52.482;9.802;2022-10-23T15:54:08;1.87;;;1.77;;
3779;SDS011;1905;52.482;9.802;2022-10-23T15:56:39;2.53;;;1.87;;
3779;SDS011;1905;52.482;9.802;2022-10-23T15:59:07;3.13;;;1.80;;
3779;SDS011;1905;52.482;9.802;2022-10-23T16:01:35;3.00;;;2.13;;
3779;SDS011;1905;52.482;9.802;2022-10-23T16:04:03;3.40;;;2.10;;
3779;SDS011;1905;52.482;9.802;2022-10-23T16:06:31;1.53;;;1.43;;
3779;SDS011;1905;52.482;9.802;2022-10-23T16:08:58;2.57;;;1.83;;
3779;SDS011;1905;52.482;9.802;2022-10-23T16:11:27;2.07;;;1.47;;
3779;SDS011;1905;52.482;9.802;2022-10-23T16:13:58;1.93;;;1.70;;
3779;SDS011;1905;52.482;9.802;2022-10-23T16:16:27;1.80;;;1.70;;
3779;SDS011;1905;52.482;9.802;2022-10-23T16:18:56;2.50;;;2.10;;